createdAt,value
2018-01-23T00:01:32.047Z,36.1
2018-01-23T00:11:31.665Z,37.2
2018-01-23T00:21:26.016Z,38.5
2018-01-23T00:31:31.663Z,36.4
2018-01-23T00:41:27.628Z,35.5
2018-01-23T00:51:25.844Z,36.5
2018-01-23T01:01:28.600Z,35.5
2018-01-23T01:11:25.674Z,36.7
2018-01-23T01:21:26.645Z,38.5
2018-01-23T01:31:26.194Z,42.9
2018-01-23T01:41:26.468Z,48.5
2018-01-23T01:51:26.198Z,49.2
2018-01-23T02:01:28.018Z,49.9
2018-01-23T02:11:32.532Z,48.9
2018-01-23T02:21:31.045Z,50.4
2018-01-23T02:31:25.736Z,48.1
2018-01-23T02:41:31.702Z,48.6
2018-01-23T02:51:31.341Z,45.0
2018-01-23T03:01:32.575Z,44.5
2018-01-23T03:11:26.194Z,43.3
2018-01-23T03:21:28.269Z,35.7
2018-01-23T03:31:26.834Z,36.0
2018-01-23T03:41:25.990Z,31.3
2018-01-23T03:51:28.796Z,28.4
2018-01-23T04:01:31.585Z,29.1
2018-01-23T04:11:31.979Z,27.3
2018-01-23T04:21:25.909Z,24.4
2018-01-23T04:31:33.794Z,25.5
2018-01-23T04:41:32.594Z,27.5
2018-01-23T04:51:31.796Z,28.2
2018-01-23T05:01:26.165Z,27.1
2018-01-23T05:11:31.966Z,27.4
2018-01-23T05:21:31.951Z,27.1
2018-01-23T05:31:27.056Z,28.7
2018-01-23T05:41:31.781Z,32.9
2018-01-23T05:51:32.678Z,30.0
2018-01-23T06:01:31.282Z,29.2
2018-01-23T06:11:28.891Z,29.6
2018-01-23T06:21:31.732Z,27.7
2018-01-23T06:31:28.253Z,29.3
2018-01-23T06:41:26.402Z,29.0
2018-01-23T06:51:31.436Z,28.2
2018-01-23T07:01:29.326Z,28.8
2018-01-23T07:11:27.189Z,29.3
2018-01-23T07:21:28.013Z,31.7
2018-01-23T07:31:32.517Z,34.5
2018-01-23T07:41:28.106Z,33.4
2018-01-23T07:55:47.811Z,31.5
2018-01-23T08:01:33.557Z,36.5
2018-01-23T08:11:28.690Z,38.5
2018-01-23T08:21:26.084Z,37.3
2018-01-23T08:31:27.362Z,39.4
2018-01-23T08:41:31.011Z,39.7
2018-01-23T08:51:31.629Z,37.5
2018-01-23T09:01:26.630Z,34.3
2018-01-23T09:11:31.670Z,32.5
2018-01-23T09:21:31.818Z,31.4
2018-01-23T09:31:26.824Z,29.4
2018-01-23T09:41:26.049Z,31.7
2018-01-23T09:51:32.601Z,31.0
2018-01-23T10:01:25.788Z,31.9
2018-01-23T10:11:26.463Z,30.0
2018-01-23T10:21:33.816Z,26.9
2018-01-23T10:31:27.394Z,29.9
2018-01-23T10:41:25.541Z,28.7
2018-01-23T10:51:25.700Z,34.4
2018-01-23T11:01:26.763Z,27.3
2018-01-23T11:11:28.620Z,27.6
2018-01-23T11:21:27.965Z,25.3
2018-01-23T11:31:26.159Z,22.9
2018-01-23T11:41:32.046Z,26.6
2018-01-23T11:51:25.734Z,29.6
2018-01-23T12:01:29.441Z,29.4
2018-01-23T12:11:26.723Z,30.4
2018-01-23T12:21:29.051Z,30.7
2018-01-23T12:31:28.118Z,30.5
2018-01-23T12:41:26.559Z,36.6
2018-01-23T12:51:31.189Z,31.8
2018-01-23T13:01:34.089Z,33.0
2018-01-23T13:11:31.761Z,30.1
2018-01-23T13:21:26.133Z,30.2
2018-01-23T13:31:26.577Z,31.2
2018-01-23T13:41:26.306Z,29.6
2018-01-23T13:51:26.465Z,29.8
2018-01-23T14:01:25.614Z,32.2
2018-01-23T14:11:25.767Z,38.5
2018-01-23T14:21:32.767Z,33.5
2018-01-23T14:31:31.526Z,33.9
2018-01-23T14:41:32.366Z,33.9
2018-01-23T14:51:31.902Z,35.3
2018-01-23T15:01:31.822Z,37.2
2018-01-23T15:11:31.471Z,39.2
2018-01-23T15:21:25.832Z,39.7
2018-01-23T15:31:31.495Z,40.3
2018-01-23T15:41:31.151Z,43.2
2018-01-23T15:51:27.529Z,42.4
2018-01-23T16:01:32.604Z,46.3
2018-01-23T16:11:26.030Z,44.1
2018-01-23T16:21:28.815Z,46.3
2018-01-23T16:31:25.984Z,47.1
2018-01-23T16:41:27.503Z,46.8
2018-01-23T16:51:31.044Z,47.8
2018-01-23T17:01:26.274Z,48.0
2018-01-23T17:11:30.918Z,48.8
2018-01-23T17:21:29.414Z,47.2
2018-01-23T17:31:25.474Z,51.8
2018-01-23T17:41:26.742Z,46.4
2018-01-23T17:51:28.326Z,46.2
2018-01-23T18:01:25.385Z,47.6
2018-01-23T18:11:25.890Z,48.9
2018-01-23T18:21:32.342Z,49.9
2018-01-23T18:31:26.922Z,51.8
2018-01-23T18:41:26.258Z,47.9
2018-01-23T18:51:27.261Z,47.3
2018-01-23T19:01:28.808Z,45.1
2018-01-23T19:11:25.900Z,46.9
2018-01-23T19:21:26.297Z,46.2
2018-01-23T19:31:31.223Z,47.8
2018-01-23T19:41:27.783Z,44.9
2018-01-23T19:51:27.599Z,46.5
2018-01-23T20:01:28.179Z,46.5
2018-01-23T20:11:32.105Z,46.3
2018-01-23T20:21:30.898Z,45.4
2018-01-23T20:31:26.398Z,45.8
2018-01-23T20:41:27.550Z,48.4
2018-01-23T20:51:29.590Z,44.8
2018-01-23T21:01:26.237Z,43.7
2018-01-23T21:11:28.080Z,45.8
2018-01-23T21:21:25.506Z,47.8
2018-01-23T21:31:27.679Z,47.5
2018-01-23T21:41:25.737Z,48.1
2018-01-23T21:51:25.828Z,48.4
2018-01-23T22:01:28.401Z,47.5
2018-01-23T22:11:33.293Z,47.7
2018-01-23T22:21:27.062Z,50.0
2018-01-23T22:31:26.513Z,55.4
2018-01-23T22:41:27.934Z,53.0
2018-01-23T22:51:28.510Z,51.4
2018-01-23T23:01:25.952Z,52.6
2018-01-23T23:11:27.036Z,52.9
2018-01-23T23:21:27.600Z,55.5
2018-01-23T23:31:26.621Z,54.7
2018-01-23T23:41:27.203Z,52.5
2018-01-23T23:51:25.918Z,53.4
